sensor_id;sensor_type;location;lat;lon;timestamp;temperature;humidity
64961;SHT31;51487;52.266;10.542;2023-04-01T00:01:22;10.78;91.98
64961;SHT31;51487;52.266;10.542;2023-04-01T00:03:47;10.79;91.81
64961;SHT31;51487;52.266;10.542;2023-04-01T00:06:15;10.78;92.21
64961;SHT31;51487;52.266;10.542;2023-04-01T00:08:41;10.83;92.10
64961;SHT31;51487;52.266;10.542;2023-04-01T00:11:06;10.71;92.52
64961;SHT31;51487;52.266;10.542;2023-04-01T00:13:32;10.74;92.69
64961;SHT31;51487;52.266;10.542;2023-04-01T00:15:57;10.74;92.59
64961;SHT31;51487;52.266;10.542;2023-04-01T00:18:23;10.72;92.46
64961;SHT31;51487;52.266;10.542;2023-04-01T00:20:50;10.69;92.68
64961;SHT31;51487;52.266;10.542;2023-04-01T00:23:16;10.81;92.77
64961;SHT31;51487;52.266;10.542;2023-04-01T00:25:42;10.78;92.75
64961;SHT31;51487;52.266;10.542;2023-04-01T00:28:07;10.82;93.05
64961;SHT31;51487;52.266;10.542;2023-04-01T00:30:33;10.64;93.10
64961;SHT31;51487;52.266;10.542;2023-04-01T00:32:58;10.76;92.83
64961;SHT31;51487;52.266;10.542;2023-04-01T00:35:24;10.67;92.59
64961;SHT31;51487;52.266;10.542;2023-04-01T00:37:49;10.64;92.29
64961;SHT31;51487;52.266;10.542;2023-04-01T00:40:35;10.65;91.63
64961;SHT31;51487;52.266;10.542;2023-04-01T00:43:01;10.65;91.64
64961;SHT31;51487;52.266;10.542;2023-04-01T00:45:36;10.65;91.73
64961;SHT31;51487;52.266;10.542;2023-04-01T00:48:30;10.68;91.23
64961;SHT31;51487;52.266;10.542;2023-04-01T00:51:01;10.72;91.15
64961;SHT31;51487;52.266;10.542;2023-04-01T00:53:28;10.75;90.92
64961;SHT31;51487;52.266;10.542;2023-04-01T00:56:00;10.75;90.58
64961;SHT31;51487;52.266;10.542;2023-04-01T00:58:29;10.76;90.74
64961;SHT31;51487;52.266;10.542;2023-04-01T01:00:56;10.75;91.65
64961;SHT31;51487;52.266;10.542;2023-04-01T01:03:23;10.78;90.85
64961;SHT31;51487;52.266;10.542;2023-04-01T01:11:10;10.81;90.81
64961;SHT31;51487;52.266;10.542;2023-04-01T01:14:09;10.72;91.51
64961;SHT31;51487;52.266;10.542;2023-04-01T01:16:44;10.78;91.38
64961;SHT31;51487;52.266;10.542;2023-04-01T01:27:29;10.55;91.05
64961;SHT31;51487;52.266;10.542;2023-04-01T01:35:48;10.61;90.58
64961;SHT31;51487;52.266;10.542;2023-04-01T01:38:17;10.68;91.00
64961;SHT31;51487;52.266;10.542;2023-04-01T01:40:46;10.65;91.12
64961;SHT31;51487;52.266;10.542;2023-04-01T01:43:16;10.64;91.04
64961;SHT31;51487;52.266;10.542;2023-04-01T01:45:46;10.64;91.48
64961;SHT31;51487;52.266;10.542;2023-04-01T01:48:12;10.67;91.07
64961;SHT31;51487;52.266;10.542;2023-04-01T01:50:39;10.68;91.25
64961;SHT31;51487;52.266;10.542;2023-04-01T01:53:07;10.57;91.68
64961;SHT31;51487;52.266;10.542;2023-04-01T01:55:36;10.55;91.73
64961;SHT31;51487;52.266;10.542;2023-04-01T02:00:37;10.53;91.97
64961;SHT31;51487;52.266;10.542;2023-04-01T02:03:04;10.44;92.05
64961;SHT31;51487;52.266;10.542;2023-04-01T02:05:30;10.47;91.93
64961;SHT31;51487;52.266;10.542;2023-04-01T02:08:26;10.48;91.78
64961;SHT31;51487;52.266;10.542;2023-04-01T02:11:00;10.53;91.74
64961;SHT31;51487;52.266;10.542;2023-04-01T02:13:33;10.58;91.90
64961;SHT31;51487;52.266;10.542;2023-04-01T02:16:05;10.62;91.72
64961;SHT31;51487;52.266;10.542;2023-04-01T02:18:33;10.68;91.85
64961;SHT31;51487;52.266;10.542;2023-04-01T02:21:00;10.61;92.00
64961;SHT31;51487;52.266;10.542;2023-04-01T02:23:26;10.65;91.99
64961;SHT31;51487;52.266;10.542;2023-04-01T02:25:53;10.55;92.37
64961;SHT31;51487;52.266;10.542;2023-04-01T02:28:19;10.55;92.35
64961;SHT31;51487;52.266;10.542;2023-04-01T02:30:47;10.47;93.05
64961;SHT31;51487;52.266;10.542;2023-04-01T02:33:15;10.47;93.12
64961;SHT31;51487;52.266;10.542;2023-04-01T02:35:40;10.50;92.71
64961;SHT31;51487;52.266;10.542;2023-04-01T02:38:06;10.51;93.44
64961;SHT31;51487;52.266;10.542;2023-04-01T02:40:45;10.60;93.10
64961;SHT31;51487;52.266;10.542;2023-04-01T02:43:11;10.48;93.24
64961;SHT31;51487;52.266;10.542;2023-04-01T02:45:36;10.40;93.40
64961;SHT31;51487;52.266;10.542;2023-04-01T02:48:02;10.44;93.29
64961;SHT31;51487;52.266;10.542;2023-04-01T02:50:27;10.45;93.09
64961;SHT31;51487;52.266;10.542;2023-04-01T02:52:52;10.44;93.33
64961;SHT31;51487;52.266;10.542;2023-04-01T02:55:18;10.44;93.37
64961;SHT31;51487;52.266;10.542;2023-04-01T02:57:43;10.43;93.16
64961;SHT31;51487;52.266;10.542;2023-04-01T03:00:09;10.44;93.01
64961;SHT31;51487;52.266;10.542;2023-04-01T03:02:37;10.51;92.94
64961;SHT31;51487;52.266;10.542;2023-04-01T03:05:03;10.47;92.79
64961;SHT31;51487;52.266;10.542;2023-04-01T03:07:29;10.48;92.54
64961;SHT31;51487;52.266;10.542;2023-04-01T03:09:54;10.48;92.90
64961;SHT31;51487;52.266;10.542;2023-04-01T03:12:20;10.48;94.18
64961;SHT31;51487;52.266;10.542;2023-04-01T03:14:45;10.48;93.27
64961;SHT31;51487;52.266;10.542;2023-04-01T03:17:10;10.43;93.43
64961;SHT31;51487;52.266;10.542;2023-04-01T03:19:36;10.45;93.33
64961;SHT31;51487;52.266;10.542;2023-04-01T03:22:01;10.45;93.30
64961;SHT31;51487;52.266;10.542;2023-04-01T03:24:27;10.43;93.53
64961;SHT31;51487;52.266;10.542;2023-04-01T03:26:52;10.45;93.63
64961;SHT31;51487;52.266;10.542;2023-04-01T03:29:17;10.43;93.64
64961;SHT31;51487;52.266;10.542;2023-04-01T03:31:43;10.37;94.02
64961;SHT31;51487;52.266;10.542;2023-04-01T03:34:09;10.37;94.21
64961;SHT31;51487;52.266;10.542;2023-04-01T03:36:34;10.34;94.01
64961;SHT31;51487;52.266;10.542;2023-04-01T03:39:00;10.34;94.00
64961;SHT31;51487;52.266;10.542;2023-04-01T03:41:25;10.30;94.17
64961;SHT31;51487;52.266;10.542;2023-04-01T03:43:53;10.34;94.26
64961;SHT31;51487;52.266;10.542;2023-04-01T03:46:19;10.30;94.37
64961;SHT31;51487;52.266;10.542;2023-04-01T03:48:44;10.34;94.54
64961;SHT31;51487;52.266;10.542;2023-04-01T03:51:10;10.34;94.12
64961;SHT31;51487;52.266;10.542;2023-04-01T03:53:35;10.37;94.30
64961;SHT31;51487;52.266;10.542;2023-04-01T03:56:07;10.30;94.45
64961;SHT31;51487;52.266;10.542;2023-04-01T03:58:33;10.32;94.39
64961;SHT31;51487;52.266;10.542;2023-04-01T04:00:59;10.29;94.15
64961;SHT31;51487;52.266;10.542;2023-04-01T04:03:24;10.32;94.78
64961;SHT31;51487;52.266;10.542;2023-04-01T04:05:50;10.29;94.46
64961;SHT31;51487;52.266;10.542;2023-04-01T04:08:16;10.33;94.49
64961;SHT31;51487;52.266;10.542;2023-04-01T04:10:43;10.40;94.30
64961;SHT31;51487;52.266;10.542;2023-04-01T04:13:08;10.33;94.50
64961;SHT31;51487;52.266;10.542;2023-04-01T04:15:34;10.32;94.53
64961;SHT31;51487;52.266;10.542;2023-04-01T04:17:59;10.23;95.12
64961;SHT31;51487;52.266;10.542;2023-04-01T04:20:25;10.21;95.18
64961;SHT31;51487;52.266;10.542;2023-04-01T04:22:50;10.33;94.82
64961;SHT31;51487;52.266;10.542;2023-04-01T04:25:16;10.33;94.33
64961;SHT31;51487;52.266;10.542;2023-04-01T04:27:41;10.33;94.17
64961;SHT31;51487;52.266;10.542;2023-04-01T04:30:08;10.32;94.00
64961;SHT31;51487;52.266;10.542;2023-04-01T04:32:34;10.27;94.06
64961;SHT31;51487;52.266;10.542;2023-04-01T04:34:59;10.30;94.12
64961;SHT31;51487;52.266;10.542;2023-04-01T04:37:25;10.29;94.09
64961;SHT31;51487;52.266;10.542;2023-04-01T04:39:51;10.32;94.11
64961;SHT31;51487;52.266;10.542;2023-04-01T04:42:16;10.29;94.16
64961;SHT31;51487;52.266;10.542;2023-04-01T04:44:41;10.32;94.29
64961;SHT31;51487;52.266;10.542;2023-04-01T04:47:07;10.34;93.83
64961;SHT31;51487;52.266;10.542;2023-04-01T04:49:32;10.33;94.02
64961;SHT31;51487;52.266;10.542;2023-04-01T04:51:57;10.38;94.16
64961;SHT31;51487;52.266;10.542;2023-04-01T04:54:23;10.40;93.73
64961;SHT31;51487;52.266;10.542;2023-04-01T04:56:51;10.33;94.49
64961;SHT31;51487;52.266;10.542;2023-04-01T04:59:17;10.45;93.90
64961;SHT31;51487;52.266;10.542;2023-04-01T05:01:42;10.40;94.24
64961;SHT31;51487;52.266;10.542;2023-04-01T05:04:08;10.41;95.20
64961;SHT31;51487;52.266;10.542;2023-04-01T05:06:33;10.41;93.95
64961;SHT31;51487;52.266;10.542;2023-04-01T05:08:58;10.44;93.65
64961;SHT31;51487;52.266;10.542;2023-04-01T05:11:24;10.50;93.56
64961;SHT31;51487;52.266;10.542;2023-04-01T05:13:51;10.44;94.26
64961;SHT31;51487;52.266;10.542;2023-04-01T05:16:19;10.44;94.32
64961;SHT31;51487;52.266;10.542;2023-04-01T05:18:45;10.51;93.74
64961;SHT31;51487;52.266;10.542;2023-04-01T05:21:12;10.58;93.64
64961;SHT31;51487;52.266;10.542;2023-04-01T05:23:38;10.62;93.55
64961;SHT31;51487;52.266;10.542;2023-04-01T05:26:05;10.57;92.98
64961;SHT31;51487;52.266;10.542;2023-04-01T05:28:30;10.67;93.15
64961;SHT31;51487;52.266;10.542;2023-04-01T05:30:58;10.60;93.04
64961;SHT31;51487;52.266;10.542;2023-04-01T05:33:24;10.68;92.84
64961;SHT31;51487;52.266;10.542;2023-04-01T05:35:49;10.64;92.83
64961;SHT31;51487;52.266;10.542;2023-04-01T05:38:14;10.64;92.68
64961;SHT31;51487;52.266;10.542;2023-04-01T05:40:40;10.67;92.69
64961;SHT31;51487;52.266;10.542;2023-04-01T05:43:05;10.60;92.93
64961;SHT31;51487;52.266;10.542;2023-04-01T05:45:30;10.60;94.13
64961;SHT31;51487;52.266;10.542;2023-04-01T05:47:56;10.71;92.95
64961;SHT31;51487;52.266;10.542;2023-04-01T05:50:22;10.68;93.08
64961;SHT31;51487;52.266;10.542;2023-04-01T05:52:47;10.65;92.78
64961;SHT31;51487;52.266;10.542;2023-04-01T05:55:12;10.74;93.27
64961;SHT31;51487;52.266;10.542;2023-04-01T05:57:38;10.67;92.83
64961;SHT31;51487;52.266;10.542;2023-04-01T06:00:04;10.81;92.88
64961;SHT31;51487;52.266;10.542;2023-04-01T06:02:29;10.79;92.77
64961;SHT31;51487;52.266;10.542;2023-04-01T06:05:11;10.75;92.66
64961;SHT31;51487;52.266;10.542;2023-04-01T06:07:37;10.82;92.71
64961;SHT31;51487;52.266;10.542;2023-04-01T06:10:11;10.74;92.91
64961;SHT31;51487;52.266;10.542;2023-04-01T06:12:47;10.88;92.61
64961;SHT31;51487;52.266;10.542;2023-04-01T06:15:20;10.91;92.52
64961;SHT31;51487;52.266;10.542;2023-04-01T06:23:45;10.92;92.33
64961;SHT31;51487;52.266;10.542;2023-04-01T06:32:04;10.98;92.44
64961;SHT31;51487;52.266;10.542;2023-04-01T06:43:49;11.12;92.41
64961;SHT31;51487;52.266;10.542;2023-04-01T06:54:45;11.26;92.58
64961;SHT31;51487;52.266;10.542;2023-04-01T07:00:43;11.53;92.03
64961;SHT31;51487;52.266;10.542;2023-04-01T07:03:33;11.57;91.44
64961;SHT31;51487;52.266;10.542;2023-04-01T07:06:03;11.75;91.17
64961;SHT31;51487;52.266;10.542;2023-04-01T07:08:29;11.66;91.37
64961;SHT31;51487;52.266;10.542;2023-04-01T07:13:59;11.99;90.31
64961;SHT31;51487;52.266;10.542;2023-04-01T07:16:36;12.01;90.21
64961;SHT31;51487;52.266;10.542;2023-04-01T07:19:16;12.21;89.93
64961;SHT31;51487;52.266;10.542;2023-04-01T07:21:54;12.35;89.39
64961;SHT31;51487;52.266;10.542;2023-04-01T07:24:29;12.49;89.20
64961;SHT31;51487;52.266;10.542;2023-04-01T07:26:57;12.53;88.26
64961;SHT31;51487;52.266;10.542;2023-04-01T07:29:23;12.56;88.73
64961;SHT31;51487;52.266;10.542;2023-04-01T07:34:25;12.76;88.03
64961;SHT31;51487;52.266;10.542;2023-04-01T07:37:06;12.80;87.83
64961;SHT31;51487;52.266;10.542;2023-04-01T07:50:52;12.98;87.58
64961;SHT31;51487;52.266;10.542;2023-04-01T07:53:36;13.21;86.73
64961;SHT31;51487;52.266;10.542;2023-04-01T07:56:10;13.34;86.92
64961;SHT31;51487;52.266;10.542;2023-04-01T08:03:42;13.19;86.48
64961;SHT31;51487;52.266;10.542;2023-04-01T08:06:43;13.38;86.16
64961;SHT31;51487;52.266;10.542;2023-04-01T08:14:48;13.42;85.70
64961;SHT31;51487;52.266;10.542;2023-04-01T08:20:32;13.55;85.00
64961;SHT31;51487;52.266;10.542;2023-04-01T08:22:51;13.44;84.37
64961;SHT31;51487;52.266;10.542;2023-04-01T08:25:22;13.51;84.84
64961;SHT31;51487;52.266;10.542;2023-04-01T08:27:51;13.22;85.57
64961;SHT31;51487;52.266;10.542;2023-04-01T08:30:25;13.06;85.84
64961;SHT31;51487;52.266;10.542;2023-04-01T08:33:01;13.00;85.90
64961;SHT31;51487;52.266;10.542;2023-04-01T08:38:23;12.90;84.78
64961;SHT31;51487;52.266;10.542;2023-04-01T08:41:42;12.73;85.10
64961;SHT31;51487;52.266;10.542;2023-04-01T08:44:04;12.79;85.96
64961;SHT31;51487;52.266;10.542;2023-04-01T08:55:38;13.46;86.57
64961;SHT31;51487;52.266;10.542;2023-04-01T09:00:46;13.76;83.22
64961;SHT31;51487;52.266;10.542;2023-04-01T09:17:18;14.00;81.04
64961;SHT31;51487;52.266;10.542;2023-04-01T09:28:13;14.10;78.68
64961;SHT31;51487;52.266;10.542;2023-04-01T09:36:46;14.14;78.26
64961;SHT31;51487;52.266;10.542;2023-04-01T09:42:14;14.31;78.40
64961;SHT31;51487;52.266;10.542;2023-04-01T09:45:01;14.34;77.61
64961;SHT31;51487;52.266;10.542;2023-04-01T09:53:09;14.17;78.88
64961;SHT31;51487;52.266;10.542;2023-04-01T10:04:17;14.54;76.89
64961;SHT31;51487;52.266;10.542;2023-04-01T10:20:54;14.64;74.76
64961;SHT31;51487;52.266;10.542;2023-04-01T10:23:22;14.65;73.45
64961;SHT31;51487;52.266;10.542;2023-04-01T10:28:48;14.30;76.73
64961;SHT31;51487;52.266;10.542;2023-04-01T10:34:02;14.07;76.51
64961;SHT31;51487;52.266;10.542;2023-04-01T10:46:49;13.49;77.93
64961;SHT31;51487;52.266;10.542;2023-04-01T10:51:25;13.38;79.44
64961;SHT31;51487;52.266;10.542;2023-04-01T10:57:09;13.24;82.70
64961;SHT31;51487;52.266;10.542;2023-04-01T11:00:11;13.04;81.00
64961;SHT31;51487;52.266;10.542;2023-04-01T11:05:42;13.14;81.10
64961;SHT31;51487;52.266;10.542;2023-04-01T11:27:25;13.32;80.21
64961;SHT31;51487;52.266;10.542;2023-04-01T11:33:00;13.19;80.51
64961;SHT31;51487;52.266;10.542;2023-04-01T11:38:37;13.03;80.80
64961;SHT31;51487;52.266;10.542;2023-04-01T11:58:44;13.37;78.25
64961;SHT31;51487;52.266;10.542;2023-04-01T12:01:33;13.35;78.40
64961;SHT31;51487;52.266;10.542;2023-04-01T12:10:17;13.32;80.02
64961;SHT31;51487;52.266;10.542;2023-04-01T12:12:59;13.22;80.40
64961;SHT31;51487;52.266;10.542;2023-04-01T12:21:02;13.12;82.73
64961;SHT31;51487;52.266;10.542;2023-04-01T12:29:48;13.54;79.55
64961;SHT31;51487;52.266;10.542;2023-04-01T12:37:45;13.63;80.33
64961;SHT31;51487;52.266;10.542;2023-04-01T12:43:03;13.65;80.14
64961;SHT31;51487;52.266;10.542;2023-04-01T12:45:34;13.56;81.32
64961;SHT31;51487;52.266;10.542;2023-04-01T12:48:15;13.62;81.99
64961;SHT31;51487;52.266;10.542;2023-04-01T12:56:14;13.46;82.41
64961;SHT31;51487;52.266;10.542;2023-04-01T13:02:00;13.25;83.21
64961;SHT31;51487;52.266;10.542;2023-04-01T13:09:44;13.35;83.33
64961;SHT31;51487;52.266;10.542;2023-04-01T13:12:50;13.10;83.61
64961;SHT31;51487;52.266;10.542;2023-04-01T13:15:41;12.81;84.44
64961;SHT31;51487;52.266;10.542;2023-04-01T13:21:25;13.07;84.40
64961;SHT31;51487;52.266;10.542;2023-04-01T13:29:28;13.21;84.94
64961;SHT31;51487;52.266;10.542;2023-04-01T13:37:15;13.08;86.78
64961;SHT31;51487;52.266;10.542;2023-04-01T13:53:11;11.80;92.31
64961;SHT31;51487;52.266;10.542;2023-04-01T13:58:35;11.37;92.56
64961;SHT31;51487;52.266;10.542;2023-04-01T14:03:54;11.02;94.34
64961;SHT31;51487;52.266;10.542;2023-04-01T14:34:24;10.20;95.10
64961;SHT31;51487;52.266;10.542;2023-04-01T14:45:19;9.81;95.67
64961;SHT31;51487;52.266;10.542;2023-04-01T14:47:54;9.66;96.01
64961;SHT31;51487;52.266;10.542;2023-04-01T14:50:24;9.54;96.49
64961;SHT31;51487;52.266;10.542;2023-04-01T14:58:13;9.49;95.09
64961;SHT31;51487;52.266;10.542;2023-04-01T15:08:52;9.31;95.73
64961;SHT31;51487;52.266;10.542;2023-04-01T15:17:48;9.24;96.54
64961;SHT31;51487;52.266;10.542;2023-04-01T15:20:28;9.18;95.84
64961;SHT31;51487;52.266;10.542;2023-04-01T15:25:57;9.11;95.13
64961;SHT31;51487;52.266;10.542;2023-04-01T15:36:38;9.00;95.50
64961;SHT31;51487;52.266;10.542;2023-04-01T15:46:58;8.93;94.76
64961;SHT31;51487;52.266;10.542;2023-04-01T15:49:44;8.90;95.32
64961;SHT31;51487;52.266;10.542;2023-04-01T15:55:27;8.77;95.70
64961;SHT31;51487;52.266;10.542;2023-04-01T16:11:15;8.55;94.96
64961;SHT31;51487;52.266;10.542;2023-04-01T16:16:53;8.46;95.54
64961;SHT31;51487;52.266;10.542;2023-04-01T16:22:13;8.35;95.43
64961;SHT31;51487;52.266;10.542;2023-04-01T16:30:00;8.14;95.73
64961;SHT31;51487;52.266;10.542;2023-04-01T16:32:40;8.04;95.42
64961;SHT31;51487;52.266;10.542;2023-04-01T16:35:23;7.94;95.42
64961;SHT31;51487;52.266;10.542;2023-04-01T16:38:07;7.86;95.80
64961;SHT31;51487;52.266;10.542;2023-04-01T16:40:42;7.94;95.80
64961;SHT31;51487;52.266;10.542;2023-04-01T16:46:15;7.91;95.96
64961;SHT31;51487;52.266;10.542;2023-04-01T16:49:05;7.91;95.62
64961;SHT31;51487;52.266;10.542;2023-04-01T16:54:35;7.76;95.93
64961;SHT31;51487;52.266;10.542;2023-04-01T17:02:15;7.62;96.69
64961;SHT31;51487;52.266;10.542;2023-04-01T17:04:47;7.52;97.12
64961;SHT31;51487;52.266;10.542;2023-04-01T17:15:46;7.45;96.64
64961;SHT31;51487;52.266;10.542;2023-04-01T17:24:06;7.49;96.45
64961;SHT31;51487;52.266;10.542;2023-04-01T17:32:18;7.36;95.78
64961;SHT31;51487;52.266;10.542;2023-04-01T17:45:53;7.14;96.56
64961;SHT31;51487;52.266;10.542;2023-04-01T18:07:30;6.77;95.61
64961;SHT31;51487;52.266;10.542;2023-04-01T18:13:02;6.74;96.01
64961;SHT31;51487;52.266;10.542;2023-04-01T18:26:02;6.64;95.66
64961;SHT31;51487;52.266;10.542;2023-04-01T18:28:44;6.53;95.81
64961;SHT31;51487;52.266;10.542;2023-04-01T18:31:18;6.51;95.71
64961;SHT31;51487;52.266;10.542;2023-04-01T18:39:11;6.46;96.29
64961;SHT31;51487;52.266;10.542;2023-04-01T18:42:08;6.46;96.69
64961;SHT31;51487;52.266;10.542;2023-04-01T18:44:46;6.40;96.99
64961;SHT31;51487;52.266;10.542;2023-04-01T18:52:47;6.36;96.25
64961;SHT31;51487;52.266;10.542;2023-04-01T18:57:54;6.29;95.75
64961;SHT31;51487;52.266;10.542;2023-04-01T19:00:28;6.25;95.60
64961;SHT31;51487;52.266;10.542;2023-04-01T19:05:33;6.32;95.88
64961;SHT31;51487;52.266;10.542;2023-04-01T19:16:49;6.26;96.52
64961;SHT31;51487;52.266;10.542;2023-04-01T19:22:20;6.18;97.12
64961;SHT31;51487;52.266;10.542;2023-04-01T19:25:06;6.30;96.89
64961;SHT31;51487;52.266;10.542;2023-04-01T19:27:37;6.12;97.40
64961;SHT31;51487;52.266;10.542;2023-04-01T19:38:22;5.95;96.52
64961;SHT31;51487;52.266;10.542;2023-04-01T19:51:39;5.77;95.97
64961;SHT31;51487;52.266;10.542;2023-04-01T19:54:25;5.74;95.84
64961;SHT31;51487;52.266;10.542;2023-04-01T19:57:14;5.74;96.38
64961;SHT31;51487;52.266;10.542;2023-04-01T19:59:50;5.78;96.36
64961;SHT31;51487;52.266;10.542;2023-04-01T20:02:39;5.61;96.04
64961;SHT31;51487;52.266;10.542;2023-04-01T20:14:13;5.33;96.85
64961;SHT31;51487;52.266;10.542;2023-04-01T20:16:54;5.36;96.60
64961;SHT31;51487;52.266;10.542;2023-04-01T20:19:35;5.33;96.93
64961;SHT31;51487;52.266;10.542;2023-04-01T20:22:08;5.36;96.46
64961;SHT31;51487;52.266;10.542;2023-04-01T20:24:42;5.36;96.44
64961;SHT31;51487;52.266;10.542;2023-04-01T20:27:15;5.31;96.25
64961;SHT31;51487;52.266;10.542;2023-04-01T20:43:47;5.09;96.88
64961;SHT31;51487;52.266;10.542;2023-04-01T20:46:30;5.03;96.79
64961;SHT31;51487;52.266;10.542;2023-04-01T20:51:38;4.91;97.02
64961;SHT31;51487;52.266;10.542;2023-04-01T21:05:35;4.83;96.53
64961;SHT31;51487;52.266;10.542;2023-04-01T21:10:55;4.75;96.45
64961;SHT31;51487;52.266;10.542;2023-04-01T21:35:33;4.69;95.32
64961;SHT31;51487;52.266;10.542;2023-04-01T21:43:49;4.64;95.32
64961;SHT31;51487;52.266;10.542;2023-04-01T21:58:25;4.48;95.72
64961;SHT31;51487;52.266;10.542;2023-04-01T22:06:04;4.40;95.36
64961;SHT31;51487;52.266;10.542;2023-04-01T22:14:13;4.41;95.51
64961;SHT31;51487;52.266;10.542;2023-04-01T22:16:59;4.37;94.77
64961;SHT31;51487;52.266;10.542;2023-04-01T22:26:09;4.34;95.31
64961;SHT31;51487;52.266;10.542;2023-04-01T22:28:44;4.31;94.80
64961;SHT31;51487;52.266;10.542;2023-04-01T22:31:13;4.25;95.06
64961;SHT31;51487;52.266;10.542;2023-04-01T22:34:00;4.25;94.66
64961;SHT31;51487;52.266;10.542;2023-04-01T22:36:43;4.31;94.89
64961;SHT31;51487;52.266;10.542;2023-04-01T22:39:34;4.30;94.85
64961;SHT31;51487;52.266;10.542;2023-04-01T22:48:47;4.34;94.88
64961;SHT31;51487;52.266;10.542;2023-04-01T22:51:40;4.31;94.24
64961;SHT31;51487;52.266;10.542;2023-04-01T22:56:56;4.29;94.12
64961;SHT31;51487;52.266;10.542;2023-04-01T22:59:31;4.17;93.76
64961;SHT31;51487;52.266;10.542;2023-04-01T23:02:06;4.13;94.24
64961;SHT31;51487;52.266;10.542;2023-04-01T23:04:37;4.09;94.63
64961;SHT31;51487;52.266;10.542;2023-04-01T23:07:41;4.25;93.73
64961;SHT31;51487;52.266;10.542;2023-04-01T23:09:58;4.18;93.38
64961;SHT31;51487;52.266;10.542;2023-04-01T23:12:27;4.27;93.25
64961;SHT31;51487;52.266;10.542;2023-04-01T23:14:55;4.14;93.15
64961;SHT31;51487;52.266;10.542;2023-04-01T23:20:15;4.16;92.86
64961;SHT31;51487;52.266;10.542;2023-04-01T23:23:11;4.13;92.74
64961;SHT31;51487;52.266;10.542;2023-04-01T23:25:59;4.00;92.22
64961;SHT31;51487;52.266;10.542;2023-04-01T23:31:29;3.96;92.91
64961;SHT31;51487;52.266;10.542;2023-04-01T23:33:56;4.00;92.10
64961;SHT31;51487;52.266;10.542;2023-04-01T23:36:22;3.94;92.11
64961;SHT31;51487;52.266;10.542;2023-04-01T23:38:49;3.85;91.79
64961;SHT31;51487;52.266;10.542;2023-04-01T23:41:24;3.78;91.26
64961;SHT31;51487;52.266;10.542;2023-04-01T23:44:11;3.73;91.83
64961;SHT31;51487;52.266;10.542;2023-04-01T23:46:39;3.79;92.26
64961;SHT31;51487;52.266;10.542;2023-04-01T23:52:30;3.87;90.96
64961;SHT31;51487;52.266;10.542;2023-04-01T23:55:03;3.79;90.93
64961;SHT31;51487;52.266;10.542;2023-04-01T23:57:35;3.78;90.48
